sensor_id;sensor_type;location;lat;lon;timestamp;P1;durP1;ratioP1;P2;durP2;ratioP2
11620;SDS011;5866;49.094;11.900;2024-01-27T00:01:12;10.33;;;9.23;;
11620;SDS011;5866;49.094;11.900;2024-01-27T00:03:41;13.33;;;9.33;;
11620;SDS011;5866;49.094;11.900;2024-01-27T00:06:09;10.33;;;6.93;;
11620;SDS011;5866;49.094;11.900;2024-01-27T00:08:37;11.10;;;7.73;;
11620;SDS011;5866;49.094;11.900;2024-01-27T00:11:04;10.73;;;9.83;;
11620;SDS011;5866;49.094;11.900;2024-01-27T00:13:32;10.53;;;7.93;;
11620;SDS011;5866;49.094;11.900;2024-01-27T00:15:59;11.30;;;10.23;;
11620;SDS011;5866;49.094;11.900;2024-01-27T00:18:27;13.77;;;11.83;;
11620;SDS011;5866;49.094;11.900;2024-01-27T00:20:56;9.63;;;8.80;;
11620;SDS011;5866;49.094;11.900;2024-01-27T00:23:24;12.00;;;11.03;;
11620;SDS011;5866;49.094;11.900;2024-01-27T00:25:51;13.07;;;11.80;;
11620;SDS011;5866;49.094;11.900;2024-01-27T00:28:19;13.23;;;12.30;;
11620;SDS011;5866;49.094;11.900;2024-01-27T00:30:46;20.30;;;18.80;;
11620;SDS011;5866;49.094;11.900;2024-01-27T00:33:14;14.30;;;13.10;;
11620;SDS011;5866;49.094;11.900;2024-01-27T00:35:42;13.20;;;11.87;;
11620;SDS011;5866;49.094;11.900;2024-01-27T00:38:11;12.47;;;11.47;;
11620;SDS011;5866;49.094;11.900;2024-01-27T00:40:39;13.67;;;12.47;;
11620;SDS011;5866;49.094;11.900;2024-01-27T00:43:06;16.73;;;15.20;;
11620;SDS011;5866;49.094;11.900;2024-01-27T00:45:34;15.27;;;14.10;;
11620;SDS011;5866;49.094;11.900;2024-01-27T00:48:02;18.20;;;16.77;;
11620;SDS011;5866;49.094;11.900;2024-01-27T00:50:30;17.27;;;15.67;;
11620;SDS011;5866;49.094;11.900;2024-01-27T00:52:58;17.57;;;15.57;;
11620;SDS011;5866;49.094;11.900;2024-01-27T00:55:27;16.17;;;14.83;;
11620;SDS011;5866;49.094;11.900;2024-01-27T00:57:54;18.20;;;16.57;;
11620;SDS011;5866;49.094;11.900;2024-01-27T01:00:22;21.60;;;19.50;;
11620;SDS011;5866;49.094;11.900;2024-01-27T01:02:49;17.60;;;16.33;;
11620;SDS011;5866;49.094;11.900;2024-01-27T01:05:17;17.10;;;15.73;;
11620;SDS011;5866;49.094;11.900;2024-01-27T01:07:45;18.83;;;17.20;;
11620;SDS011;5866;49.094;11.900;2024-01-27T01:10:12;18.97;;;17.67;;
11620;SDS011;5866;49.094;11.900;2024-01-27T01:12:41;19.23;;;17.63;;
11620;SDS011;5866;49.094;11.900;2024-01-27T01:15:09;22.27;;;20.30;;
11620;SDS011;5866;49.094;11.900;2024-01-27T01:17:37;26.83;;;24.87;;
11620;SDS011;5866;49.094;11.900;2024-01-27T01:20:05;27.23;;;25.03;;
11620;SDS011;5866;49.094;11.900;2024-01-27T01:22:33;18.97;;;17.57;;
11620;SDS011;5866;49.094;11.900;2024-01-27T01:25:01;26.70;;;24.50;;
11620;SDS011;5866;49.094;11.900;2024-01-27T01:27:28;20.50;;;18.67;;
11620;SDS011;5866;49.094;11.900;2024-01-27T01:29:58;50.80;;;47.77;;
11620;SDS011;5866;49.094;11.900;2024-01-27T01:32:25;47.70;;;44.33;;
11620;SDS011;5866;49.094;11.900;2024-01-27T01:34:53;59.23;;;55.50;;
11620;SDS011;5866;49.094;11.900;2024-01-27T01:37:21;53.47;;;49.83;;
11620;SDS011;5866;49.094;11.900;2024-01-27T01:39:48;35.13;;;32.53;;
11620;SDS011;5866;49.094;11.900;2024-01-27T01:42:16;42.97;;;39.70;;
11620;SDS011;5866;49.094;11.900;2024-01-27T01:44:44;39.37;;;36.60;;
11620;SDS011;5866;49.094;11.900;2024-01-27T01:47:13;44.10;;;41.20;;
11620;SDS011;5866;49.094;11.900;2024-01-27T01:49:41;49.27;;;46.13;;
11620;SDS011;5866;49.094;11.900;2024-01-27T01:52:08;34.37;;;31.93;;
11620;SDS011;5866;49.094;11.900;2024-01-27T01:54:37;28.97;;;26.60;;
11620;SDS011;5866;49.094;11.900;2024-01-27T01:57:05;20.73;;;18.80;;
11620;SDS011;5866;49.094;11.900;2024-01-27T01:59:33;23.20;;;21.33;;
11620;SDS011;5866;49.094;11.900;2024-01-27T02:02:07;24.70;;;22.90;;
11620;SDS011;5866;49.094;11.900;2024-01-27T02:04:40;26.60;;;25.03;;
11620;SDS011;5866;49.094;11.900;2024-01-27T02:07:08;27.90;;;25.77;;
11620;SDS011;5866;49.094;11.900;2024-01-27T02:09:36;24.57;;;22.93;;
11620;SDS011;5866;49.094;11.900;2024-01-27T02:12:04;26.47;;;24.43;;
11620;SDS011;5866;49.094;11.900;2024-01-27T02:14:32;24.03;;;22.20;;
11620;SDS011;5866;49.094;11.900;2024-01-27T02:17:00;21.30;;;19.20;;
11620;SDS011;5866;49.094;11.900;2024-01-27T02:19:27;24.93;;;23.00;;
11620;SDS011;5866;49.094;11.900;2024-01-27T02:21:57;19.77;;;18.37;;
11620;SDS011;5866;49.094;11.900;2024-01-27T02:24:26;19.67;;;18.00;;
11620;SDS011;5866;49.094;11.900;2024-01-27T02:26:54;17.30;;;15.77;;
11620;SDS011;5866;49.094;11.900;2024-01-27T02:29:22;22.67;;;20.63;;
11620;SDS011;5866;49.094;11.900;2024-01-27T02:31:52;23.43;;;21.40;;
11620;SDS011;5866;49.094;11.900;2024-01-27T02:34:20;23.73;;;21.87;;
11620;SDS011;5866;49.094;11.900;2024-01-27T02:36:48;22.87;;;20.80;;
11620;SDS011;5866;49.094;11.900;2024-01-27T02:39:16;23.07;;;21.03;;
11620;SDS011;5866;49.094;11.900;2024-01-27T02:41:45;19.47;;;17.90;;
11620;SDS011;5866;49.094;11.900;2024-01-27T02:44:14;18.10;;;16.80;;
11620;SDS011;5866;49.094;11.900;2024-01-27T02:46:41;22.23;;;20.10;;
11620;SDS011;5866;49.094;11.900;2024-01-27T02:49:10;22.23;;;20.40;;
11620;SDS011;5866;49.094;11.900;2024-01-27T02:51:39;23.20;;;20.77;;
11620;SDS011;5866;49.094;11.900;2024-01-27T02:54:07;21.83;;;20.13;;
11620;SDS011;5866;49.094;11.900;2024-01-27T02:56:35;20.23;;;18.80;;
11620;SDS011;5866;49.094;11.900;2024-01-27T02:59:04;20.57;;;18.60;;
11620;SDS011;5866;49.094;11.900;2024-01-27T03:01:32;20.80;;;19.27;;
11620;SDS011;5866;49.094;11.900;2024-01-27T03:03:59;26.53;;;24.63;;
11620;SDS011;5866;49.094;11.900;2024-01-27T03:06:27;22.57;;;20.70;;
11620;SDS011;5866;49.094;11.900;2024-01-27T03:08:55;26.17;;;24.27;;
11620;SDS011;5866;49.094;11.900;2024-01-27T03:11:22;28.10;;;26.00;;
11620;SDS011;5866;49.094;11.900;2024-01-27T03:13:50;26.40;;;24.50;;
11620;SDS011;5866;49.094;11.900;2024-01-27T03:16:19;27.07;;;24.97;;
11620;SDS011;5866;49.094;11.900;2024-01-27T03:18:47;24.90;;;23.03;;
11620;SDS011;5866;49.094;11.900;2024-01-27T03:21:15;26.67;;;24.70;;
11620;SDS011;5866;49.094;11.900;2024-01-27T03:23:43;19.93;;;18.50;;
11620;SDS011;5866;49.094;11.900;2024-01-27T03:26:10;27.33;;;25.23;;
11620;SDS011;5866;49.094;11.900;2024-01-27T03:28:38;23.80;;;22.10;;
11620;SDS011;5866;49.094;11.900;2024-01-27T03:31:05;30.47;;;28.17;;
11620;SDS011;5866;49.094;11.900;2024-01-27T03:33:34;21.87;;;20.37;;
11620;SDS011;5866;49.094;11.900;2024-01-27T03:36:02;20.50;;;18.27;;
11620;SDS011;5866;49.094;11.900;2024-01-27T03:38:30;16.67;;;15.37;;
11620;SDS011;5866;49.094;11.900;2024-01-27T03:40:57;21.57;;;19.50;;
11620;SDS011;5866;49.094;11.900;2024-01-27T03:43:25;24.20;;;22.30;;
11620;SDS011;5866;49.094;11.900;2024-01-27T03:45:53;25.70;;;23.67;;
11620;SDS011;5866;49.094;11.900;2024-01-27T03:48:20;28.03;;;26.03;;
11620;SDS011;5866;49.094;11.900;2024-01-27T03:50:50;21.93;;;20.30;;
11620;SDS011;5866;49.094;11.900;2024-01-27T03:53:17;25.33;;;23.47;;
11620;SDS011;5866;49.094;11.900;2024-01-27T03:55:45;24.50;;;22.73;;
11620;SDS011;5866;49.094;11.900;2024-01-27T03:58:12;25.53;;;23.80;;
11620;SDS011;5866;49.094;11.900;2024-01-27T04:00:40;22.47;;;20.37;;
11620;SDS011;5866;49.094;11.900;2024-01-27T04:03:11;26.63;;;24.43;;
11620;SDS011;5866;49.094;11.900;2024-01-27T04:05:38;23.50;;;21.37;;
11620;SDS011;5866;49.094;11.900;2024-01-27T04:08:07;24.57;;;22.43;;
11620;SDS011;5866;49.094;11.900;2024-01-27T04:10:36;28.57;;;26.37;;
11620;SDS011;5866;49.094;11.900;2024-01-27T04:13:04;34.80;;;32.20;;
11620;SDS011;5866;49.094;11.900;2024-01-27T04:15:32;33.10;;;31.00;;
11620;SDS011;5866;49.094;11.900;2024-01-27T04:18:04;32.27;;;29.97;;
11620;SDS011;5866;49.094;11.900;2024-01-27T04:20:33;30.70;;;28.20;;
11620;SDS011;5866;49.094;11.900;2024-01-27T04:23:01;23.37;;;21.63;;
11620;SDS011;5866;49.094;11.900;2024-01-27T04:25:30;27.20;;;25.30;;
11620;SDS011;5866;49.094;11.900;2024-01-27T04:27:58;30.97;;;28.60;;
11620;SDS011;5866;49.094;11.900;2024-01-27T04:30:26;31.53;;;29.20;;
11620;SDS011;5866;49.094;11.900;2024-01-27T04:32:52;29.00;;;26.73;;
11620;SDS011;5866;49.094;11.900;2024-01-27T04:35:20;43.33;;;40.30;;
11620;SDS011;5866;49.094;11.900;2024-01-27T04:37:48;31.87;;;29.43;;
11620;SDS011;5866;49.094;11.900;2024-01-27T04:40:15;36.40;;;33.67;;
11620;SDS011;5866;49.094;11.900;2024-01-27T04:42:44;33.93;;;31.70;;
11620;SDS011;5866;49.094;11.900;2024-01-27T04:45:14;39.00;;;36.30;;
11620;SDS011;5866;49.094;11.900;2024-01-27T04:47:42;30.87;;;28.57;;
11620;SDS011;5866;49.094;11.900;2024-01-27T04:50:10;42.73;;;39.87;;
11620;SDS011;5866;49.094;11.900;2024-01-27T04:52:37;32.87;;;30.40;;
11620;SDS011;5866;49.094;11.900;2024-01-27T04:55:05;37.00;;;33.67;;
11620;SDS011;5866;49.094;11.900;2024-01-27T04:57:33;34.27;;;31.57;;
11620;SDS011;5866;49.094;11.900;2024-01-27T05:00:02;41.10;;;38.23;;
11620;SDS011;5866;49.094;11.900;2024-01-27T05:02:31;48.83;;;45.73;;
11620;SDS011;5866;49.094;11.900;2024-01-27T05:04:59;44.33;;;41.03;;
11620;SDS011;5866;49.094;11.900;2024-01-27T05:07:27;48.00;;;44.87;;
11620;SDS011;5866;49.094;11.900;2024-01-27T05:09:54;53.07;;;49.50;;
11620;SDS011;5866;49.094;11.900;2024-01-27T05:12:22;33.73;;;31.23;;
11620;SDS011;5866;49.094;11.900;2024-01-27T05:14:50;25.83;;;24.03;;
11620;SDS011;5866;49.094;11.900;2024-01-27T05:17:19;29.93;;;27.53;;
11620;SDS011;5866;49.094;11.900;2024-01-27T05:19:46;25.90;;;23.77;;
11620;SDS011;5866;49.094;11.900;2024-01-27T05:22:14;29.23;;;26.60;;
11620;SDS011;5866;49.094;11.900;2024-01-27T05:24:42;33.93;;;31.50;;
11620;SDS011;5866;49.094;11.900;2024-01-27T05:27:10;31.20;;;29.10;;
11620;SDS011;5866;49.094;11.900;2024-01-27T05:29:37;34.73;;;32.10;;
11620;SDS011;5866;49.094;11.900;2024-01-27T05:32:05;19.63;;;18.20;;
11620;SDS011;5866;49.094;11.900;2024-01-27T05:34:34;23.23;;;21.73;;
11620;SDS011;5866;49.094;11.900;2024-01-27T05:37:02;24.67;;;22.80;;
11620;SDS011;5866;49.094;11.900;2024-01-27T05:39:30;20.57;;;19.10;;
11620;SDS011;5866;49.094;11.900;2024-01-27T05:42:00;29.67;;;27.33;;
11620;SDS011;5866;49.094;11.900;2024-01-27T05:44:28;26.03;;;24.00;;
11620;SDS011;5866;49.094;11.900;2024-01-27T05:46:55;19.07;;;17.43;;
11620;SDS011;5866;49.094;11.900;2024-01-27T05:49:23;21.97;;;20.17;;
11620;SDS011;5866;49.094;11.900;2024-01-27T05:51:52;21.47;;;19.40;;
11620;SDS011;5866;49.094;11.900;2024-01-27T05:54:20;24.00;;;22.20;;
11620;SDS011;5866;49.094;11.900;2024-01-27T05:56:47;22.87;;;21.17;;
11620;SDS011;5866;49.094;11.900;2024-01-27T05:59:15;27.70;;;25.40;;
11620;SDS011;5866;49.094;11.900;2024-01-27T06:01:42;38.20;;;35.60;;
11620;SDS011;5866;49.094;11.900;2024-01-27T06:04:10;35.37;;;33.00;;
11620;SDS011;5866;49.094;11.900;2024-01-27T06:06:39;36.30;;;33.73;;
11620;SDS011;5866;49.094;11.900;2024-01-27T06:09:08;36.10;;;33.40;;
11620;SDS011;5866;49.094;11.900;2024-01-27T06:11:37;40.87;;;38.00;;
11620;SDS011;5866;49.094;11.900;2024-01-27T06:14:05;36.00;;;33.40;;
11620;SDS011;5866;49.094;11.900;2024-01-27T06:16:33;35.43;;;32.50;;
11620;SDS011;5866;49.094;11.900;2024-01-27T06:19:01;31.53;;;29.13;;
11620;SDS011;5866;49.094;11.900;2024-01-27T06:21:29;30.10;;;27.63;;
11620;SDS011;5866;49.094;11.900;2024-01-27T06:23:57;24.00;;;22.33;;
11620;SDS011;5866;49.094;11.900;2024-01-27T06:26:26;30.93;;;28.77;;
11620;SDS011;5866;49.094;11.900;2024-01-27T06:28:54;27.70;;;25.37;;
11620;SDS011;5866;49.094;11.900;2024-01-27T06:31:21;26.73;;;24.53;;
11620;SDS011;5866;49.094;11.900;2024-01-27T06:33:49;29.60;;;27.63;;
11620;SDS011;5866;49.094;11.900;2024-01-27T06:36:16;34.10;;;31.47;;
11620;SDS011;5866;49.094;11.900;2024-01-27T06:38:44;42.50;;;39.33;;
11620;SDS011;5866;49.094;11.900;2024-01-27T06:41:12;39.23;;;36.33;;
11620;SDS011;5866;49.094;11.900;2024-01-27T06:43:41;36.40;;;33.63;;
11620;SDS011;5866;49.094;11.900;2024-01-27T06:46:09;38.03;;;35.43;;
11620;SDS011;5866;49.094;11.900;2024-01-27T06:48:36;33.17;;;30.70;;
11620;SDS011;5866;49.094;11.900;2024-01-27T06:51:04;30.60;;;28.70;;
11620;SDS011;5866;49.094;11.900;2024-01-27T06:53:32;31.07;;;28.97;;
11620;SDS011;5866;49.094;11.900;2024-01-27T06:56:00;26.53;;;24.87;;
11620;SDS011;5866;49.094;11.900;2024-01-27T06:58:27;28.10;;;26.23;;
11620;SDS011;5866;49.094;11.900;2024-01-27T07:00:57;31.30;;;28.93;;
11620;SDS011;5866;49.094;11.900;2024-01-27T07:03:24;31.53;;;29.23;;
11620;SDS011;5866;49.094;11.900;2024-01-27T07:05:52;28.80;;;26.83;;
11620;SDS011;5866;49.094;11.900;2024-01-27T07:08:20;27.27;;;24.90;;
11620;SDS011;5866;49.094;11.900;2024-01-27T07:10:48;26.27;;;24.20;;
11620;SDS011;5866;49.094;11.900;2024-01-27T07:13:15;26.47;;;24.47;;
11620;SDS011;5866;49.094;11.900;2024-01-27T07:15:43;26.10;;;23.90;;
11620;SDS011;5866;49.094;11.900;2024-01-27T07:18:12;24.87;;;22.80;;
11620;SDS011;5866;49.094;11.900;2024-01-27T07:20:41;25.37;;;23.67;;
11620;SDS011;5866;49.094;11.900;2024-01-27T07:23:09;28.60;;;26.10;;
11620;SDS011;5866;49.094;11.900;2024-01-27T07:25:36;25.60;;;23.57;;
11620;SDS011;5866;49.094;11.900;2024-01-27T07:28:04;22.57;;;20.97;;
11620;SDS011;5866;49.094;11.900;2024-01-27T07:30:32;28.00;;;25.77;;
11620;SDS011;5866;49.094;11.900;2024-01-27T07:32:59;26.27;;;23.93;;
11620;SDS011;5866;49.094;11.900;2024-01-27T07:35:28;27.20;;;25.03;;
11620;SDS011;5866;49.094;11.900;2024-01-27T07:37:58;26.83;;;24.30;;
11620;SDS011;5866;49.094;11.900;2024-01-27T07:40:25;27.43;;;25.03;;
11620;SDS011;5866;49.094;11.900;2024-01-27T07:42:53;27.67;;;25.30;;
11620;SDS011;5866;49.094;11.900;2024-01-27T07:45:20;31.07;;;28.83;;
11620;SDS011;5866;49.094;11.900;2024-01-27T07:47:48;33.37;;;31.13;;
11620;SDS011;5866;49.094;11.900;2024-01-27T07:50:16;35.77;;;33.10;;
11620;SDS011;5866;49.094;11.900;2024-01-27T07:52:44;37.67;;;35.07;;
11620;SDS011;5866;49.094;11.900;2024-01-27T07:55:12;36.40;;;33.80;;
11620;SDS011;5866;49.094;11.900;2024-01-27T07:57:40;29.20;;;25.80;;
11620;SDS011;5866;49.094;11.900;2024-01-27T08:00:08;26.90;;;24.30;;
11620;SDS011;5866;49.094;11.900;2024-01-27T08:02:36;24.47;;;22.43;;
11620;SDS011;5866;49.094;11.900;2024-01-27T08:05:04;22.47;;;20.63;;
11620;SDS011;5866;49.094;11.900;2024-01-27T08:07:33;33.00;;;30.37;;
11620;SDS011;5866;49.094;11.900;2024-01-27T08:10:02;26.53;;;24.03;;
11620;SDS011;5866;49.094;11.900;2024-01-27T08:12:31;28.20;;;26.00;;
11620;SDS011;5866;49.094;11.900;2024-01-27T08:14:59;29.87;;;27.07;;
11620;SDS011;5866;49.094;11.900;2024-01-27T08:17:26;31.63;;;28.93;;
11620;SDS011;5866;49.094;11.900;2024-01-27T08:19:54;27.43;;;21.23;;
11620;SDS011;5866;49.094;11.900;2024-01-27T08:22:22;26.80;;;24.30;;
11620;SDS011;5866;49.094;11.900;2024-01-27T08:24:49;17.80;;;16.27;;
11620;SDS011;5866;49.094;11.900;2024-01-27T08:27:18;12.83;;;11.73;;
11620;SDS011;5866;49.094;11.900;2024-01-27T08:29:46;11.57;;;9.73;;
11620;SDS011;5866;49.094;11.900;2024-01-27T08:32:13;14.27;;;8.57;;
11620;SDS011;5866;49.094;11.900;2024-01-27T08:34:41;11.73;;;9.80;;
11620;SDS011;5866;49.094;11.900;2024-01-27T08:37:14;13.70;;;12.40;;
11620;SDS011;5866;49.094;11.900;2024-01-27T08:39:42;11.67;;;10.67;;
11620;SDS011;5866;49.094;11.900;2024-01-27T08:42:10;9.77;;;7.97;;
11620;SDS011;5866;49.094;11.900;2024-01-27T08:44:39;10.47;;;9.33;;
11620;SDS011;5866;49.094;11.900;2024-01-27T08:47:07;8.80;;;8.07;;
11620;SDS011;5866;49.094;11.900;2024-01-27T08:49:34;10.07;;;7.67;;
11620;SDS011;5866;49.094;11.900;2024-01-27T08:52:02;7.43;;;6.73;;
11620;SDS011;5866;49.094;11.900;2024-01-27T08:54:30;9.90;;;7.43;;
11620;SDS011;5866;49.094;11.900;2024-01-27T08:56:58;12.13;;;6.80;;
11620;SDS011;5866;49.094;11.900;2024-01-27T08:59:26;10.80;;;6.83;;
11620;SDS011;5866;49.094;11.900;2024-01-27T09:01:54;6.60;;;5.13;;
11620;SDS011;5866;49.094;11.900;2024-01-27T09:04:22;11.57;;;6.00;;
11620;SDS011;5866;49.094;11.900;2024-01-27T09:06:50;6.97;;;5.00;;
11620;SDS011;5866;49.094;11.900;2024-01-27T09:09:17;11.27;;;8.43;;
11620;SDS011;5866;49.094;11.900;2024-01-27T09:11:45;9.40;;;8.37;;
11620;SDS011;5866;49.094;11.900;2024-01-27T09:14:13;12.40;;;11.40;;
11620;SDS011;5866;49.094;11.900;2024-01-27T09:16:40;12.27;;;11.37;;
11620;SDS011;5866;49.094;11.900;2024-01-27T09:19:09;10.63;;;9.53;;
11620;SDS011;5866;49.094;11.900;2024-01-27T09:21:37;10.30;;;7.63;;
11620;SDS011;5866;49.094;11.900;2024-01-27T09:24:05;18.57;;;16.83;;
11620;SDS011;5866;49.094;11.900;2024-01-27T09:26:32;10.03;;;8.80;;
11620;SDS011;5866;49.094;11.900;2024-01-27T09:29:00;12.13;;;10.57;;
11620;SDS011;5866;49.094;11.900;2024-01-27T09:31:28;12.47;;;8.07;;
11620;SDS011;5866;49.094;11.900;2024-01-27T09:33:55;9.93;;;8.90;;
11620;SDS011;5866;49.094;11.900;2024-01-27T09:36:24;10.87;;;8.37;;
11620;SDS011;5866;49.094;11.900;2024-01-27T09:38:52;13.33;;;11.90;;
11620;SDS011;5866;49.094;11.900;2024-01-27T09:41:20;13.87;;;11.40;;
11620;SDS011;5866;49.094;11.900;2024-01-27T09:43:48;14.80;;;13.60;;
11620;SDS011;5866;49.094;11.900;2024-01-27T09:46:16;14.97;;;13.40;;
11620;SDS011;5866;49.094;11.900;2024-01-27T09:48:44;15.00;;;13.23;;
11620;SDS011;5866;49.094;11.900;2024-01-27T09:51:12;14.63;;;12.17;;
11620;SDS011;5866;49.094;11.900;2024-01-27T09:53:41;17.03;;;14.53;;
11620;SDS011;5866;49.094;11.900;2024-01-27T09:56:09;12.57;;;9.10;;
11620;SDS011;5866;49.094;11.900;2024-01-27T09:58:38;14.77;;;13.57;;
11620;SDS011;5866;49.094;11.900;2024-01-27T10:01:06;11.97;;;11.00;;
11620;SDS011;5866;49.094;11.900;2024-01-27T10:03:35;13.97;;;12.47;;
11620;SDS011;5866;49.094;11.900;2024-01-27T10:06:07;10.90;;;9.90;;
11620;SDS011;5866;49.094;11.900;2024-01-27T10:08:36;11.27;;;10.17;;
11620;SDS011;5866;49.094;11.900;2024-01-27T10:11:06;12.67;;;11.70;;
11620;SDS011;5866;49.094;11.900;2024-01-27T10:13:35;14.20;;;12.77;;
11620;SDS011;5866;49.094;11.900;2024-01-27T10:16:03;11.10;;;10.13;;
11620;SDS011;5866;49.094;11.900;2024-01-27T10:18:32;14.87;;;12.00;;
11620;SDS011;5866;49.094;11.900;2024-01-27T10:21:00;17.60;;;9.07;;
11620;SDS011;5866;49.094;11.900;2024-01-27T10:23:39;13.33;;;12.13;;
11620;SDS011;5866;49.094;11.900;2024-01-27T10:26:09;12.03;;;10.97;;
11620;SDS011;5866;49.094;11.900;2024-01-27T10:28:37;11.30;;;10.23;;
11620;SDS011;5866;49.094;11.900;2024-01-27T10:31:09;12.57;;;8.60;;
11620;SDS011;5866;49.094;11.900;2024-01-27T10:33:37;9.87;;;8.87;;
11620;SDS011;5866;49.094;11.900;2024-01-27T10:36:05;9.80;;;8.43;;
11620;SDS011;5866;49.094;11.900;2024-01-27T10:38:34;11.37;;;7.93;;
11620;SDS011;5866;49.094;11.900;2024-01-27T10:41:02;10.13;;;9.10;;
11620;SDS011;5866;49.094;11.900;2024-01-27T10:43:38;11.83;;;10.67;;
11620;SDS011;5866;49.094;11.900;2024-01-27T10:46:07;10.30;;;9.43;;
11620;SDS011;5866;49.094;11.900;2024-01-27T10:48:35;9.00;;;8.20;;
11620;SDS011;5866;49.094;11.900;2024-01-27T10:51:07;10.23;;;7.00;;
11620;SDS011;5866;49.094;11.900;2024-01-27T10:53:36;18.73;;;17.30;;
11620;SDS011;5866;49.094;11.900;2024-01-27T10:56:06;9.73;;;8.67;;
11620;SDS011;5866;49.094;11.900;2024-01-27T10:58:36;12.87;;;8.30;;
11620;SDS011;5866;49.094;11.900;2024-01-27T11:01:09;10.80;;;9.83;;
11620;SDS011;5866;49.094;11.900;2024-01-27T11:03:39;12.10;;;9.33;;
11620;SDS011;5866;49.094;11.900;2024-01-27T11:06:08;10.27;;;8.43;;
11620;SDS011;5866;49.094;11.900;2024-01-27T11:08:36;11.70;;;10.53;;
11620;SDS011;5866;49.094;11.900;2024-01-27T11:11:12;10.10;;;8.93;;
11620;SDS011;5866;49.094;11.900;2024-01-27T11:13:40;11.73;;;8.63;;
11620;SDS011;5866;49.094;11.900;2024-01-27T11:16:15;14.97;;;8.27;;
11620;SDS011;5866;49.094;11.900;2024-01-27T11:18:44;11.27;;;8.60;;
11620;SDS011;5866;49.094;11.900;2024-01-27T11:21:13;11.40;;;9.27;;
11620;SDS011;5866;49.094;11.900;2024-01-27T11:23:42;8.83;;;7.93;;
11620;SDS011;5866;49.094;11.900;2024-01-27T11:26:16;9.10;;;8.20;;
11620;SDS011;5866;49.094;11.900;2024-01-27T11:28:47;9.03;;;8.37;;
11620;SDS011;5866;49.094;11.900;2024-01-27T11:31:17;10.77;;;8.83;;
11620;SDS011;5866;49.094;11.900;2024-01-27T11:33:47;13.07;;;8.03;;
11620;SDS011;5866;49.094;11.900;2024-01-27T11:36:19;8.10;;;7.30;;
11620;SDS011;5866;49.094;11.900;2024-01-27T11:38:48;8.73;;;7.87;;
11620;SDS011;5866;49.094;11.900;2024-01-27T11:41:23;9.73;;;8.40;;
11620;SDS011;5866;49.094;11.900;2024-01-27T11:43:52;10.60;;;9.53;;
11620;SDS011;5866;49.094;11.900;2024-01-27T11:46:21;8.23;;;6.67;;
11620;SDS011;5866;49.094;11.900;2024-01-27T11:48:49;10.37;;;8.63;;
11620;SDS011;5866;49.094;11.900;2024-01-27T11:51:17;10.80;;;9.57;;
11620;SDS011;5866;49.094;11.900;2024-01-27T11:53:45;10.33;;;9.00;;
11620;SDS011;5866;49.094;11.900;2024-01-27T11:56:13;9.00;;;8.20;;
11620;SDS011;5866;49.094;11.900;2024-01-27T11:58:45;12.00;;;7.93;;
11620;SDS011;5866;49.094;11.900;2024-01-27T12:01:14;8.40;;;7.40;;
11620;SDS011;5866;49.094;11.900;2024-01-27T12:03:44;9.27;;;8.00;;
11620;SDS011;5866;49.094;11.900;2024-01-27T12:06:12;13.63;;;12.43;;
11620;SDS011;5866;49.094;11.900;2024-01-27T12:08:41;18.37;;;15.60;;
11620;SDS011;5866;49.094;11.900;2024-01-27T12:11:13;14.20;;;12.80;;
11620;SDS011;5866;49.094;11.900;2024-01-27T12:13:42;12.50;;;11.27;;
11620;SDS011;5866;49.094;11.900;2024-01-27T12:16:09;15.47;;;14.17;;
11620;SDS011;5866;49.094;11.900;2024-01-27T12:18:37;12.80;;;11.67;;
11620;SDS011;5866;49.094;11.900;2024-01-27T12:21:06;12.97;;;9.77;;
11620;SDS011;5866;49.094;11.900;2024-01-27T12:23:34;10.77;;;9.77;;
11620;SDS011;5866;49.094;11.900;2024-01-27T12:26:01;15.77;;;12.87;;
11620;SDS011;5866;49.094;11.900;2024-01-27T12:28:30;14.67;;;12.70;;
11620;SDS011;5866;49.094;11.900;2024-01-27T12:30:57;16.93;;;11.60;;
11620;SDS011;5866;49.094;11.900;2024-01-27T12:33:25;12.60;;;6.90;;
11620;SDS011;5866;49.094;11.900;2024-01-27T12:35:54;12.60;;;7.78;;
11620;SDS011;5866;49.094;11.900;2024-01-27T12:38:23;8.67;;;7.77;;
11620;SDS011;5866;49.094;11.900;2024-01-27T12:40:51;11.13;;;8.00;;
11620;SDS011;5866;49.094;11.900;2024-01-27T12:43:18;12.75;;;8.45;;
11620;SDS011;5866;49.094;11.900;2024-01-27T12:45:46;11.60;;;8.43;;
11620;SDS011;5866;49.094;11.900;2024-01-27T12:48:13;9.70;;;8.60;;
11620;SDS011;5866;49.094;11.900;2024-01-27T12:50:41;11.53;;;10.33;;
11620;SDS011;5866;49.094;11.900;2024-01-27T12:53:09;11.23;;;9.88;;
11620;SDS011;5866;49.094;11.900;2024-01-27T12:55:38;10.55;;;9.32;;
11620;SDS011;5866;49.094;11.900;2024-01-27T12:58:06;11.18;;;7.97;;
11620;SDS011;5866;49.094;11.900;2024-01-27T13:00:34;12.55;;;9.98;;
11620;SDS011;5866;49.094;11.900;2024-01-27T13:03:01;13.40;;;9.13;;
11620;SDS011;5866;49.094;11.900;2024-01-27T13:05:29;8.27;;;5.00;;
11620;SDS011;5866;49.094;11.900;2024-01-27T13:07:58;5.63;;;4.40;;
11620;SDS011;5866;49.094;11.900;2024-01-27T13:10:25;10.95;;;5.20;;
11620;SDS011;5866;49.094;11.900;2024-01-27T13:12:54;8.05;;;4.32;;
11620;SDS011;5866;49.094;11.900;2024-01-27T13:15:22;8.90;;;6.63;;
11620;SDS011;5866;49.094;11.900;2024-01-27T13:17:51;7.97;;;5.43;;
11620;SDS011;5866;49.094;11.900;2024-01-27T13:20:19;8.93;;;5.33;;
11620;SDS011;5866;49.094;11.900;2024-01-27T13:22:46;13.00;;;6.97;;
11620;SDS011;5866;49.094;11.900;2024-01-27T13:25:14;9.47;;;7.63;;
11620;SDS011;5866;49.094;11.900;2024-01-27T13:27:42;13.03;;;7.47;;
11620;SDS011;5866;49.094;11.900;2024-01-27T13:30:12;14.57;;;8.10;;
11620;SDS011;5866;49.094;11.900;2024-01-27T13:32:40;12.97;;;7.97;;
11620;SDS011;5866;49.094;11.900;2024-01-27T13:35:07;10.52;;;6.85;;
11620;SDS011;5866;49.094;11.900;2024-01-27T13:37:35;9.03;;;5.23;;
11620;SDS011;5866;49.094;11.900;2024-01-27T13:40:03;7.20;;;4.20;;
11620;SDS011;5866;49.094;11.900;2024-01-27T13:42:33;8.60;;;5.13;;
11620;SDS011;5866;49.094;11.900;2024-01-27T13:45:01;11.10;;;7.90;;
11620;SDS011;5866;49.094;11.900;2024-01-27T13:47:30;9.20;;;5.13;;
11620;SDS011;5866;49.094;11.900;2024-01-27T13:49:58;10.97;;;5.80;;
11620;SDS011;5866;49.094;11.900;2024-01-27T13:52:26;14.00;;;7.97;;
11620;SDS011;5866;49.094;11.900;2024-01-27T13:54:55;8.07;;;6.50;;
11620;SDS011;5866;49.094;11.900;2024-01-27T13:57:22;10.15;;;7.78;;
11620;SDS011;5866;49.094;11.900;2024-01-27T13:59:50;14.52;;;9.55;;
11620;SDS011;5866;49.094;11.900;2024-01-27T14:02:17;12.70;;;11.43;;
11620;SDS011;5866;49.094;11.900;2024-01-27T14:04:47;14.30;;;13.10;;
11620;SDS011;5866;49.094;11.900;2024-01-27T14:07:14;9.73;;;6.60;;
11620;SDS011;5866;49.094;11.900;2024-01-27T14:09:42;9.57;;;4.57;;
11620;SDS011;5866;49.094;11.900;2024-01-27T14:12:10;6.83;;;4.13;;
11620;SDS011;5866;49.094;11.900;2024-01-27T14:14:39;8.03;;;4.60;;
11620;SDS011;5866;49.094;11.900;2024-01-27T14:17:07;9.80;;;4.50;;
11620;SDS011;5866;49.094;11.900;2024-01-27T14:19:35;7.70;;;5.60;;
11620;SDS011;5866;49.094;11.900;2024-01-27T14:22:05;11.63;;;4.90;;
11620;SDS011;5866;49.094;11.900;2024-01-27T14:24:32;9.60;;;4.60;;
11620;SDS011;5866;49.094;11.900;2024-01-27T14:27:00;10.33;;;4.60;;
11620;SDS011;5866;49.094;11.900;2024-01-27T14:29:28;9.50;;;5.93;;
11620;SDS011;5866;49.094;11.900;2024-01-27T14:31:55;7.80;;;4.60;;
11620;SDS011;5866;49.094;11.900;2024-01-27T14:34:23;8.70;;;4.73;;